sensor_id;sensor_type;location;lat;lon;timestamp;temperature;humidity
6986;DHT22;3533;51.246;6.850;2023-09-07T00:00:22;24.00;50.00
6986;DHT22;3533;51.246;6.850;2023-09-07T00:02:48;24.00;50.00
6986;DHT22;3533;51.246;6.850;2023-09-07T00:05:13;24.00;50.00
6986;DHT22;3533;51.246;6.850;2023-09-07T00:07:39;24.00;50.00
6986;DHT22;3533;51.246;6.850;2023-09-07T00:10:05;24.00;50.00
6986;DHT22;3533;51.246;6.850;2023-09-07T00:12:31;24.00;50.00
6986;DHT22;3533;51.246;6.850;2023-09-07T00:14:57;24.00;50.00
6986;DHT22;3533;51.246;6.850;2023-09-07T00:17:23;24.00;50.00
6986;DHT22;3533;51.246;6.850;2023-09-07T00:19:49;24.00;50.00
6986;DHT22;3533;51.246;6.850;2023-09-07T00:22:16;24.00;50.00
6986;DHT22;3533;51.246;6.850;2023-09-07T00:24:42;24.00;50.00
6986;DHT22;3533;51.246;6.850;2023-09-07T00:27:08;24.00;50.00
6986;DHT22;3533;51.246;6.850;2023-09-07T00:29:36;24.00;50.00
6986;DHT22;3533;51.246;6.850;2023-09-07T00:32:02;24.00;50.00
6986;DHT22;3533;51.246;6.850;2023-09-07T00:34:28;24.00;50.10
6986;DHT22;3533;51.246;6.850;2023-09-07T00:36:53;24.00;50.00
6986;DHT22;3533;51.246;6.850;2023-09-07T00:39:19;24.00;50.10
6986;DHT22;3533;51.246;6.850;2023-09-07T00:41:44;24.00;50.10
6986;DHT22;3533;51.246;6.850;2023-09-07T00:44:10;24.00;50.10
6986;DHT22;3533;51.246;6.850;2023-09-07T00:46:35;24.00;50.00
6986;DHT22;3533;51.246;6.850;2023-09-07T00:49:01;24.00;50.10
6986;DHT22;3533;51.246;6.850;2023-09-07T00:51:28;24.00;50.00
6986;DHT22;3533;51.246;6.850;2023-09-07T00:53:54;24.00;50.00
6986;DHT22;3533;51.246;6.850;2023-09-07T00:56:19;24.00;50.10
6986;DHT22;3533;51.246;6.850;2023-09-07T00:58:45;24.00;50.10
6986;DHT22;3533;51.246;6.850;2023-09-07T01:01:11;24.00;50.10
6986;DHT22;3533;51.246;6.850;2023-09-07T01:03:36;24.00;50.10
6986;DHT22;3533;51.246;6.850;2023-09-07T01:06:07;24.00;50.10
6986;DHT22;3533;51.246;6.850;2023-09-07T01:08:47;24.00;50.00
6986;DHT22;3533;51.246;6.850;2023-09-07T01:11:17;24.00;50.00
6986;DHT22;3533;51.246;6.850;2023-09-07T01:13:43;24.00;50.10
6986;DHT22;3533;51.246;6.850;2023-09-07T01:16:10;24.00;50.10
6986;DHT22;3533;51.246;6.850;2023-09-07T01:18:37;24.00;50.10
6986;DHT22;3533;51.246;6.850;2023-09-07T01:21:05;24.00;50.10
6986;DHT22;3533;51.246;6.850;2023-09-07T01:23:31;24.00;50.10
6986;DHT22;3533;51.246;6.850;2023-09-07T01:25:57;24.00;50.10
6986;DHT22;3533;51.246;6.850;2023-09-07T01:28:23;24.00;50.10
6986;DHT22;3533;51.246;6.850;2023-09-07T01:30:51;24.00;50.10
6986;DHT22;3533;51.246;6.850;2023-09-07T01:33:17;24.00;50.10
6986;DHT22;3533;51.246;6.850;2023-09-07T01:35:43;24.00;50.10
6986;DHT22;3533;51.246;6.850;2023-09-07T01:38:11;24.00;50.90
6986;DHT22;3533;51.246;6.850;2023-09-07T01:40:36;24.00;50.10
6986;DHT22;3533;51.246;6.850;2023-09-07T01:43:02;24.00;50.10
6986;DHT22;3533;51.246;6.850;2023-09-07T01:45:27;24.00;50.10
6986;DHT22;3533;51.246;6.850;2023-09-07T01:47:53;24.00;50.10
6986;DHT22;3533;51.246;6.850;2023-09-07T01:50:19;24.00;50.10
6986;DHT22;3533;51.246;6.850;2023-09-07T01:52:47;24.00;50.10
6986;DHT22;3533;51.246;6.850;2023-09-07T01:55:14;24.00;50.10
6986;DHT22;3533;51.246;6.850;2023-09-07T01:57:39;24.00;50.10
6986;DHT22;3533;51.246;6.850;2023-09-07T02:00:05;24.00;50.10
6986;DHT22;3533;51.246;6.850;2023-09-07T02:02:31;24.00;50.10
6986;DHT22;3533;51.246;6.850;2023-09-07T02:04:57;24.00;50.10
6986;DHT22;3533;51.246;6.850;2023-09-07T02:07:22;24.00;50.10
6986;DHT22;3533;51.246;6.850;2023-09-07T02:09:48;24.00;50.10
6986;DHT22;3533;51.246;6.850;2023-09-07T02:12:13;24.00;50.10
6986;DHT22;3533;51.246;6.850;2023-09-07T02:14:39;24.00;50.10
6986;DHT22;3533;51.246;6.850;2023-09-07T02:17:05;24.00;50.10
6986;DHT22;3533;51.246;6.850;2023-09-07T02:19:30;24.00;50.10
6986;DHT22;3533;51.246;6.850;2023-09-07T02:21:56;24.00;50.10
6986;DHT22;3533;51.246;6.850;2023-09-07T02:24:21;24.00;50.10
6986;DHT22;3533;51.246;6.850;2023-09-07T02:26:47;24.00;50.10
6986;DHT22;3533;51.246;6.850;2023-09-07T02:29:12;24.00;50.10
6986;DHT22;3533;51.246;6.850;2023-09-07T02:31:40;24.00;50.10
6986;DHT22;3533;51.246;6.850;2023-09-07T02:34:05;24.00;50.20
6986;DHT22;3533;51.246;6.850;2023-09-07T02:36:31;24.00;50.10
6986;DHT22;3533;51.246;6.850;2023-09-07T02:38:57;24.00;50.10
6986;DHT22;3533;51.246;6.850;2023-09-07T02:41:22;24.00;50.10
6986;DHT22;3533;51.246;6.850;2023-09-07T02:43:48;24.00;50.10
6986;DHT22;3533;51.246;6.850;2023-09-07T02:46:13;24.00;50.10
6986;DHT22;3533;51.246;6.850;2023-09-07T02:48:39;24.00;50.10
6986;DHT22;3533;51.246;6.850;2023-09-07T02:51:04;24.00;50.10
6986;DHT22;3533;51.246;6.850;2023-09-07T02:53:30;24.00;50.20
6986;DHT22;3533;51.246;6.850;2023-09-07T02:55:56;24.00;50.50
6986;DHT22;3533;51.246;6.850;2023-09-07T02:58:22;24.00;50.20
6986;DHT22;3533;51.246;6.850;2023-09-07T03:00:48;24.00;50.20
6986;DHT22;3533;51.246;6.850;2023-09-07T03:03:14;24.00;50.20
6986;DHT22;3533;51.246;6.850;2023-09-07T03:05:40;24.00;50.20
6986;DHT22;3533;51.246;6.850;2023-09-07T03:08:06;24.00;50.20
6986;DHT22;3533;51.246;6.850;2023-09-07T03:10:32;24.00;50.20
6986;DHT22;3533;51.246;6.850;2023-09-07T03:12:58;24.00;50.20
6986;DHT22;3533;51.246;6.850;2023-09-07T03:15:23;24.00;50.20
6986;DHT22;3533;51.246;6.850;2023-09-07T03:17:49;24.00;50.20
6986;DHT22;3533;51.246;6.850;2023-09-07T03:20:14;24.00;50.20
6986;DHT22;3533;51.246;6.850;2023-09-07T03:22:42;24.00;50.20
6986;DHT22;3533;51.246;6.850;2023-09-07T03:25:08;24.00;50.20
6986;DHT22;3533;51.246;6.850;2023-09-07T03:27:35;24.00;50.10
6986;DHT22;3533;51.246;6.850;2023-09-07T03:30:01;24.00;50.20
6986;DHT22;3533;51.246;6.850;2023-09-07T03:32:27;24.00;50.10
6986;DHT22;3533;51.246;6.850;2023-09-07T03:34:57;24.00;50.20
6986;DHT22;3533;51.246;6.850;2023-09-07T03:37:22;24.00;50.20
6986;DHT22;3533;51.246;6.850;2023-09-07T03:39:48;24.00;50.20
6986;DHT22;3533;51.246;6.850;2023-09-07T03:42:13;24.00;50.20
6986;DHT22;3533;51.246;6.850;2023-09-07T03:44:39;24.00;50.20
6986;DHT22;3533;51.246;6.850;2023-09-07T03:47:05;24.00;50.20
6986;DHT22;3533;51.246;6.850;2023-09-07T03:49:30;24.00;50.20
6986;DHT22;3533;51.246;6.850;2023-09-07T03:51:56;24.00;50.20
6986;DHT22;3533;51.246;6.850;2023-09-07T03:54:22;24.00;50.20
6986;DHT22;3533;51.246;6.850;2023-09-07T03:56:47;24.00;50.20
6986;DHT22;3533;51.246;6.850;2023-09-07T03:59:13;24.00;50.20
6986;DHT22;3533;51.246;6.850;2023-09-07T04:01:38;24.00;50.30
6986;DHT22;3533;51.246;6.850;2023-09-07T04:04:04;24.00;50.20
6986;DHT22;3533;51.246;6.850;2023-09-07T04:06:30;24.00;50.30
6986;DHT22;3533;51.246;6.850;2023-09-07T04:08:56;24.00;50.20
6986;DHT22;3533;51.246;6.850;2023-09-07T04:11:21;24.00;50.20
6986;DHT22;3533;51.246;6.850;2023-09-07T04:13:47;24.00;50.10
6986;DHT22;3533;51.246;6.850;2023-09-07T04:16:12;24.00;50.10
6986;DHT22;3533;51.246;6.850;2023-09-07T04:18:38;24.00;50.00
6986;DHT22;3533;51.246;6.850;2023-09-07T04:21:09;24.00;50.10
6986;DHT22;3533;51.246;6.850;2023-09-07T04:23:35;24.00;50.00
6986;DHT22;3533;51.246;6.850;2023-09-07T04:26:08;24.10;50.10
6986;DHT22;3533;51.246;6.850;2023-09-07T04:28:34;24.10;50.00
6986;DHT22;3533;51.246;6.850;2023-09-07T04:31:00;24.10;50.00
6986;DHT22;3533;51.246;6.850;2023-09-07T04:33:25;24.10;50.00
6986;DHT22;3533;51.246;6.850;2023-09-07T04:35:51;24.10;50.00
6986;DHT22;3533;51.246;6.850;2023-09-07T04:38:16;24.10;50.00
6986;DHT22;3533;51.246;6.850;2023-09-07T04:40:42;24.10;50.10
6986;DHT22;3533;51.246;6.850;2023-09-07T04:43:07;24.10;50.00
6986;DHT22;3533;51.246;6.850;2023-09-07T04:45:33;24.10;50.00
6986;DHT22;3533;51.246;6.850;2023-09-07T04:47:58;24.10;50.80
6986;DHT22;3533;51.246;6.850;2023-09-07T04:50:24;24.10;49.70
6986;DHT22;3533;51.246;6.850;2023-09-07T04:52:50;24.10;49.60
6986;DHT22;3533;51.246;6.850;2023-09-07T04:55:15;24.10;49.60
6986;DHT22;3533;51.246;6.850;2023-09-07T04:57:41;24.10;49.60
6986;DHT22;3533;51.246;6.850;2023-09-07T05:00:07;24.10;49.60
6986;DHT22;3533;51.246;6.850;2023-09-07T05:02:34;24.10;49.60
6986;DHT22;3533;51.246;6.850;2023-09-07T05:05:06;24.10;49.60
6986;DHT22;3533;51.246;6.850;2023-09-07T05:07:32;24.10;49.50
6986;DHT22;3533;51.246;6.850;2023-09-07T05:09:57;24.10;49.50
6986;DHT22;3533;51.246;6.850;2023-09-07T05:12:23;24.10;49.50
6986;DHT22;3533;51.246;6.850;2023-09-07T05:14:48;24.10;49.50
6986;DHT22;3533;51.246;6.850;2023-09-07T05:17:14;24.10;49.30
6986;DHT22;3533;51.246;6.850;2023-09-07T05:19:39;24.10;49.30
6986;DHT22;3533;51.246;6.850;2023-09-07T05:22:05;24.10;49.40
6986;DHT22;3533;51.246;6.850;2023-09-07T05:24:30;24.10;49.30
6986;DHT22;3533;51.246;6.850;2023-09-07T05:26:56;24.10;49.30
6986;DHT22;3533;51.246;6.850;2023-09-07T05:29:21;24.20;49.40
6986;DHT22;3533;51.246;6.850;2023-09-07T05:31:48;24.10;49.30
6986;DHT22;3533;51.246;6.850;2023-09-07T05:34:13;24.10;49.40
6986;DHT22;3533;51.246;6.850;2023-09-07T05:36:39;24.10;49.30
6986;DHT22;3533;51.246;6.850;2023-09-07T05:39:04;24.10;49.40
6986;DHT22;3533;51.246;6.850;2023-09-07T05:41:30;24.10;49.50
6986;DHT22;3533;51.246;6.850;2023-09-07T05:43:56;24.10;49.40
6986;DHT22;3533;51.246;6.850;2023-09-07T05:46:21;24.10;49.50
6986;DHT22;3533;51.246;6.850;2023-09-07T05:48:47;24.10;49.50
6986;DHT22;3533;51.246;6.850;2023-09-07T05:51:12;24.10;49.50
6986;DHT22;3533;51.246;6.850;2023-09-07T05:53:39;24.10;49.50
6986;DHT22;3533;51.246;6.850;2023-09-07T05:56:05;24.10;49.50
6986;DHT22;3533;51.246;6.850;2023-09-07T05:58:30;24.10;49.50
6986;DHT22;3533;51.246;6.850;2023-09-07T06:00:56;24.10;49.50
6986;DHT22;3533;51.246;6.850;2023-09-07T06:03:21;24.10;49.50
6986;DHT22;3533;51.246;6.850;2023-09-07T06:05:47;24.10;49.50
6986;DHT22;3533;51.246;6.850;2023-09-07T06:08:12;24.10;49.50
6986;DHT22;3533;51.246;6.850;2023-09-07T06:10:38;24.10;49.50
6986;DHT22;3533;51.246;6.850;2023-09-07T06:13:04;24.10;49.50
6986;DHT22;3533;51.246;6.850;2023-09-07T06:15:29;24.10;49.50
6986;DHT22;3533;51.246;6.850;2023-09-07T06:17:55;24.10;49.50
6986;DHT22;3533;51.246;6.850;2023-09-07T06:20:20;24.10;49.50
6986;DHT22;3533;51.246;6.850;2023-09-07T06:22:46;24.10;49.50
6986;DHT22;3533;51.246;6.850;2023-09-07T06:25:12;24.10;49.50
6986;DHT22;3533;51.246;6.850;2023-09-07T06:27:37;24.10;49.50
6986;DHT22;3533;51.246;6.850;2023-09-07T06:30:06;24.10;49.60
6986;DHT22;3533;51.246;6.850;2023-09-07T06:32:32;24.10;49.50
6986;DHT22;3533;51.246;6.850;2023-09-07T06:34:58;24.10;49.50
6986;DHT22;3533;51.246;6.850;2023-09-07T06:37:24;24.10;49.50
6986;DHT22;3533;51.246;6.850;2023-09-07T06:39:50;24.10;49.50
6986;DHT22;3533;51.246;6.850;2023-09-07T06:42:16;24.10;49.50
6986;DHT22;3533;51.246;6.850;2023-09-07T06:44:41;24.10;49.60
6986;DHT22;3533;51.246;6.850;2023-09-07T06:47:08;24.10;49.60
6986;DHT22;3533;51.246;6.850;2023-09-07T06:49:34;24.10;49.60
6986;DHT22;3533;51.246;6.850;2023-09-07T06:52:00;24.10;49.60
6986;DHT22;3533;51.246;6.850;2023-09-07T06:54:27;24.20;49.60
6986;DHT22;3533;51.246;6.850;2023-09-07T06:56:53;24.10;49.60
6986;DHT22;3533;51.246;6.850;2023-09-07T06:59:18;24.10;49.60
6986;DHT22;3533;51.246;6.850;2023-09-07T07:01:44;24.10;49.60
6986;DHT22;3533;51.246;6.850;2023-09-07T07:04:09;24.10;49.60
6986;DHT22;3533;51.246;6.850;2023-09-07T07:06:35;24.10;49.50
6986;DHT22;3533;51.246;6.850;2023-09-07T07:09:00;24.10;49.60
6986;DHT22;3533;51.246;6.850;2023-09-07T07:11:26;24.10;49.50
6986;DHT22;3533;51.246;6.850;2023-09-07T07:13:51;24.10;49.60
6986;DHT22;3533;51.246;6.850;2023-09-07T07:16:17;24.20;49.60
6986;DHT22;3533;51.246;6.850;2023-09-07T07:18:43;24.10;49.70
6986;DHT22;3533;51.246;6.850;2023-09-07T07:21:08;24.10;49.50
6986;DHT22;3533;51.246;6.850;2023-09-07T07:23:34;24.10;49.60
6986;DHT22;3533;51.246;6.850;2023-09-07T07:26:00;24.10;49.50
6986;DHT22;3533;51.246;6.850;2023-09-07T07:28:25;24.10;49.60
6986;DHT22;3533;51.246;6.850;2023-09-07T07:30:51;24.20;49.60
6986;DHT22;3533;51.246;6.850;2023-09-07T07:33:19;24.10;49.50
6986;DHT22;3533;51.246;6.850;2023-09-07T07:35:45;24.20;49.60
6986;DHT22;3533;51.246;6.850;2023-09-07T07:38:11;24.10;49.50
6986;DHT22;3533;51.246;6.850;2023-09-07T07:40:39;24.20;49.60
6986;DHT22;3533;51.246;6.850;2023-09-07T07:43:04;24.20;49.50
6986;DHT22;3533;51.246;6.850;2023-09-07T07:45:31;24.20;49.60
6986;DHT22;3533;51.246;6.850;2023-09-07T07:48:01;24.20;49.60
6986;DHT22;3533;51.246;6.850;2023-09-07T07:50:27;24.20;49.60
6986;DHT22;3533;51.246;6.850;2023-09-07T07:52:53;24.20;49.60
6986;DHT22;3533;51.246;6.850;2023-09-07T07:55:18;24.20;49.60
6986;DHT22;3533;51.246;6.850;2023-09-07T07:57:44;24.20;49.60
6986;DHT22;3533;51.246;6.850;2023-09-07T08:00:10;24.20;49.60
6986;DHT22;3533;51.246;6.850;2023-09-07T08:02:35;24.20;49.60
6986;DHT22;3533;51.246;6.850;2023-09-07T08:05:01;24.20;49.50
6986;DHT22;3533;51.246;6.850;2023-09-07T08:07:26;24.20;49.60
6986;DHT22;3533;51.246;6.850;2023-09-07T08:09:52;24.20;49.50
6986;DHT22;3533;51.246;6.850;2023-09-07T08:12:18;24.20;49.50
6986;DHT22;3533;51.246;6.850;2023-09-07T08:14:44;24.20;49.50
6986;DHT22;3533;51.246;6.850;2023-09-07T08:17:09;24.20;49.50
6986;DHT22;3533;51.246;6.850;2023-09-07T08:19:35;24.20;49.60
6986;DHT22;3533;51.246;6.850;2023-09-07T08:22:00;24.20;49.60
6986;DHT22;3533;51.246;6.850;2023-09-07T08:24:30;24.20;49.50
6986;DHT22;3533;51.246;6.850;2023-09-07T08:26:55;24.20;49.60
6986;DHT22;3533;51.246;6.850;2023-09-07T08:29:26;24.20;49.60
6986;DHT22;3533;51.246;6.850;2023-09-07T08:31:55;24.20;49.60
6986;DHT22;3533;51.246;6.850;2023-09-07T08:34:21;24.20;49.60
6986;DHT22;3533;51.246;6.850;2023-09-07T08:36:47;24.20;49.50
6986;DHT22;3533;51.246;6.850;2023-09-07T08:39:15;24.20;49.60
6986;DHT22;3533;51.246;6.850;2023-09-07T08:41:41;24.20;50.30
6986;DHT22;3533;51.246;6.850;2023-09-07T08:44:15;24.30;49.70
6986;DHT22;3533;51.246;6.850;2023-09-07T08:46:41;24.20;49.50
6986;DHT22;3533;51.246;6.850;2023-09-07T08:49:08;24.30;49.60
6986;DHT22;3533;51.246;6.850;2023-09-07T08:51:34;24.20;49.50
6986;DHT22;3533;51.246;6.850;2023-09-07T08:54:03;24.20;49.50
6986;DHT22;3533;51.246;6.850;2023-09-07T08:56:28;24.30;49.60
6986;DHT22;3533;51.246;6.850;2023-09-07T08:58:54;24.20;49.50
6986;DHT22;3533;51.246;6.850;2023-09-07T09:01:20;24.30;49.60
6986;DHT22;3533;51.246;6.850;2023-09-07T09:03:49;24.30;49.60
6986;DHT22;3533;51.246;6.850;2023-09-07T09:06:20;24.30;49.60
6986;DHT22;3533;51.246;6.850;2023-09-07T09:08:48;24.30;49.60
6986;DHT22;3533;51.246;6.850;2023-09-07T09:11:18;24.30;49.60
6986;DHT22;3533;51.246;6.850;2023-09-07T09:13:44;24.30;49.60
6986;DHT22;3533;51.246;6.850;2023-09-07T09:16:10;24.30;49.60
6986;DHT22;3533;51.246;6.850;2023-09-07T09:18:36;24.30;49.60
6986;DHT22;3533;51.246;6.850;2023-09-07T09:21:03;24.30;49.60
6986;DHT22;3533;51.246;6.850;2023-09-07T09:23:34;24.30;49.60
6986;DHT22;3533;51.246;6.850;2023-09-07T09:26:04;24.30;49.60
6986;DHT22;3533;51.246;6.850;2023-09-07T09:28:36;24.30;49.60
6986;DHT22;3533;51.246;6.850;2023-09-07T09:31:02;24.30;49.60
6986;DHT22;3533;51.246;6.850;2023-09-07T09:33:31;24.30;49.60
6986;DHT22;3533;51.246;6.850;2023-09-07T09:35:57;24.30;49.70
6986;DHT22;3533;51.246;6.850;2023-09-07T09:38:23;24.30;49.60
6986;DHT22;3533;51.246;6.850;2023-09-07T09:40:49;24.30;49.60
6986;DHT22;3533;51.246;6.850;2023-09-07T09:43:15;24.30;49.60
6986;DHT22;3533;51.246;6.850;2023-09-07T09:45:41;24.30;49.60
6986;DHT22;3533;51.246;6.850;2023-09-07T09:48:08;24.30;49.60
6986;DHT22;3533;51.246;6.850;2023-09-07T09:50:35;24.30;49.60
6986;DHT22;3533;51.246;6.850;2023-09-07T09:53:05;24.30;49.60
6986;DHT22;3533;51.246;6.850;2023-09-07T09:55:32;24.30;49.60
6986;DHT22;3533;51.246;6.850;2023-09-07T09:57:58;24.30;49.60
6986;DHT22;3533;51.246;6.850;2023-09-07T10:00:24;24.30;49.60
6986;DHT22;3533;51.246;6.850;2023-09-07T10:03:21;24.30;49.60
6986;DHT22;3533;51.246;6.850;2023-09-07T10:05:49;24.30;49.50
6986;DHT22;3533;51.246;6.850;2023-09-07T10:08:17;24.30;49.60
6986;DHT22;3533;51.246;6.850;2023-09-07T10:10:46;24.30;49.60
6986;DHT22;3533;51.246;6.850;2023-09-07T10:13:16;24.30;49.60
6986;DHT22;3533;51.246;6.850;2023-09-07T10:16:00;24.30;49.50
6986;DHT22;3533;51.246;6.850;2023-09-07T10:18:33;24.30;49.60
6986;DHT22;3533;51.246;6.850;2023-09-07T10:21:00;24.30;49.60
6986;DHT22;3533;51.246;6.850;2023-09-07T10:23:44;24.30;49.60
6986;DHT22;3533;51.246;6.850;2023-09-07T10:26:15;24.30;49.50
6986;DHT22;3533;51.246;6.850;2023-09-07T10:28:43;24.30;49.70
6986;DHT22;3533;51.246;6.850;2023-09-07T10:31:19;24.30;49.70
6986;DHT22;3533;51.246;6.850;2023-09-07T10:33:46;24.30;49.60
6986;DHT22;3533;51.246;6.850;2023-09-07T10:36:22;24.30;49.60
6986;DHT22;3533;51.246;6.850;2023-09-07T10:38:48;24.30;49.50
6986;DHT22;3533;51.246;6.850;2023-09-07T10:41:14;24.30;49.60
6986;DHT22;3533;51.246;6.850;2023-09-07T10:43:50;24.30;49.60
6986;DHT22;3533;51.246;6.850;2023-09-07T10:46:20;24.30;49.60
6986;DHT22;3533;51.246;6.850;2023-09-07T10:48:49;24.30;49.60
6986;DHT22;3533;51.246;6.850;2023-09-07T10:51:15;24.40;49.70
6986;DHT22;3533;51.246;6.850;2023-09-07T10:53:41;24.30;49.60
6986;DHT22;3533;51.246;6.850;2023-09-07T10:56:07;24.30;49.60
6986;DHT22;3533;51.246;6.850;2023-09-07T10:58:34;24.30;49.70
6986;DHT22;3533;51.246;6.850;2023-09-07T11:01:00;24.30;49.60
6986;DHT22;3533;51.246;6.850;2023-09-07T11:03:27;24.30;49.60
6986;DHT22;3533;51.246;6.850;2023-09-07T11:06:16;24.30;49.60
6986;DHT22;3533;51.246;6.850;2023-09-07T11:08:46;24.30;49.50
6986;DHT22;3533;51.246;6.850;2023-09-07T11:11:12;24.30;49.60
6986;DHT22;3533;51.246;6.850;2023-09-07T11:13:38;24.30;49.60
6986;DHT22;3533;51.246;6.850;2023-09-07T11:16:07;24.30;49.60
6986;DHT22;3533;51.246;6.850;2023-09-07T11:18:33;24.30;49.60
6986;DHT22;3533;51.246;6.850;2023-09-07T11:21:01;24.30;49.60
6986;DHT22;3533;51.246;6.850;2023-09-07T11:23:32;24.30;49.60
6986;DHT22;3533;51.246;6.850;2023-09-07T11:26:04;24.40;49.70
6986;DHT22;3533;51.246;6.850;2023-09-07T11:28:31;24.40;49.70
6986;DHT22;3533;51.246;6.850;2023-09-07T11:30:57;24.30;49.60
6986;DHT22;3533;51.246;6.850;2023-09-07T11:33:23;24.40;49.70
6986;DHT22;3533;51.246;6.850;2023-09-07T11:35:49;24.40;49.70
6986;DHT22;3533;51.246;6.850;2023-09-07T11:38:16;24.40;49.70
6986;DHT22;3533;51.246;6.850;2023-09-07T11:40:42;24.40;49.70
6986;DHT22;3533;51.246;6.850;2023-09-07T11:43:10;24.40;49.70
6986;DHT22;3533;51.246;6.850;2023-09-07T11:45:36;24.40;49.70
6986;DHT22;3533;51.246;6.850;2023-09-07T11:48:01;24.40;49.60
6986;DHT22;3533;51.246;6.850;2023-09-07T11:50:27;24.40;49.70
6986;DHT22;3533;51.246;6.850;2023-09-07T11:52:55;24.40;49.70
6986;DHT22;3533;51.246;6.850;2023-09-07T11:55:21;24.40;49.60
6986;DHT22;3533;51.246;6.850;2023-09-07T11:57:47;24.40;49.70
6986;DHT22;3533;51.246;6.850;2023-09-07T12:00:13;24.40;49.70
6986;DHT22;3533;51.246;6.850;2023-09-07T12:02:40;24.40;49.70
6986;DHT22;3533;51.246;6.850;2023-09-07T12:05:06;24.40;49.60
6986;DHT22;3533;51.246;6.850;2023-09-07T12:07:36;24.40;49.70
6986;DHT22;3533;51.246;6.850;2023-09-07T12:10:02;24.40;49.60
6986;DHT22;3533;51.246;6.850;2023-09-07T12:12:28;24.40;49.60
6986;DHT22;3533;51.246;6.850;2023-09-07T12:14:54;24.40;49.60
6986;DHT22;3533;51.246;6.850;2023-09-07T12:17:21;24.40;49.70
6986;DHT22;3533;51.246;6.850;2023-09-07T12:19:47;24.40;49.60
6986;DHT22;3533;51.246;6.850;2023-09-07T12:22:12;24.40;49.60
6986;DHT22;3533;51.246;6.850;2023-09-07T12:24:38;24.40;49.60
6986;DHT22;3533;51.246;6.850;2023-09-07T12:27:04;24.40;49.60
6986;DHT22;3533;51.246;6.850;2023-09-07T12:29:29;24.40;49.60
6986;DHT22;3533;51.246;6.850;2023-09-07T12:31:55;24.40;49.60
6986;DHT22;3533;51.246;6.850;2023-09-07T12:34:20;24.40;49.60
6986;DHT22;3533;51.246;6.850;2023-09-07T12:36:46;24.40;49.60
6986;DHT22;3533;51.246;6.850;2023-09-07T12:39:12;24.40;49.60
6986;DHT22;3533;51.246;6.850;2023-09-07T12:41:38;24.40;49.60
6986;DHT22;3533;51.246;6.850;2023-09-07T12:44:04;24.40;50.10
6986;DHT22;3533;51.246;6.850;2023-09-07T12:46:30;24.40;50.40
6986;DHT22;3533;51.246;6.850;2023-09-07T12:48:56;24.40;49.60
6986;DHT22;3533;51.246;6.850;2023-09-07T12:51:21;24.40;49.60
6986;DHT22;3533;51.246;6.850;2023-09-07T12:53:47;24.40;49.60
6986;DHT22;3533;51.246;6.850;2023-09-07T12:56:12;24.40;49.60
6986;DHT22;3533;51.246;6.850;2023-09-07T12:58:38;24.40;49.60
6986;DHT22;3533;51.246;6.850;2023-09-07T13:01:04;24.40;49.60
6986;DHT22;3533;51.246;6.850;2023-09-07T13:03:30;24.40;49.60
6986;DHT22;3533;51.246;6.850;2023-09-07T13:05:55;24.40;49.60
6986;DHT22;3533;51.246;6.850;2023-09-07T13:08:21;24.40;49.60
6986;DHT22;3533;51.246;6.850;2023-09-07T13:10:46;24.40;49.60
6986;DHT22;3533;51.246;6.850;2023-09-07T13:13:12;24.40;49.60
6986;DHT22;3533;51.246;6.850;2023-09-07T13:15:37;24.40;49.60
6986;DHT22;3533;51.246;6.850;2023-09-07T13:18:03;24.40;49.60
6986;DHT22;3533;51.246;6.850;2023-09-07T13:20:29;24.40;49.60
6986;DHT22;3533;51.246;6.850;2023-09-07T13:22:55;24.40;49.60
6986;DHT22;3533;51.246;6.850;2023-09-07T13:25:20;24.40;49.50
6986;DHT22;3533;51.246;6.850;2023-09-07T13:27:46;24.40;49.60
6986;DHT22;3533;51.246;6.850;2023-09-07T13:30:11;24.40;49.50
6986;DHT22;3533;51.246;6.850;2023-09-07T13:32:37;24.40;49.50
6986;DHT22;3533;51.246;6.850;2023-09-07T13:35:04;24.40;49.50
6986;DHT22;3533;51.246;6.850;2023-09-07T13:37:30;24.40;49.50
6986;DHT22;3533;51.246;6.850;2023-09-07T13:39:55;24.40;49.50
6986;DHT22;3533;51.246;6.850;2023-09-07T13:42:21;24.40;49.60
6986;DHT22;3533;51.246;6.850;2023-09-07T13:44:46;24.40;49.50
6986;DHT22;3533;51.246;6.850;2023-09-07T13:47:13;24.40;49.50
6986;DHT22;3533;51.246;6.850;2023-09-07T13:49:38;24.40;49.50
6986;DHT22;3533;51.246;6.850;2023-09-07T13:52:04;24.40;49.50
6986;DHT22;3533;51.246;6.850;2023-09-07T13:54:30;24.40;49.50
6986;DHT22;3533;51.246;6.850;2023-09-07T13:56:56;24.40;49.60
6986;DHT22;3533;51.246;6.850;2023-09-07T13:59:21;24.40;49.60
6986;DHT22;3533;51.246;6.850;2023-09-07T14:01:47;24.40;49.60
6986;DHT22;3533;51.246;6.850;2023-09-07T14:04:13;24.40;49.60
6986;DHT22;3533;51.246;6.850;2023-09-07T14:06:39;24.40;49.50
6986;DHT22;3533;51.246;6.850;2023-09-07T14:09:05;24.40;49.50
6986;DHT22;3533;51.246;6.850;2023-09-07T14:11:32;24.40;49.60
6986;DHT22;3533;51.246;6.850;2023-09-07T14:13:58;24.40;49.60
6986;DHT22;3533;51.246;6.850;2023-09-07T14:16:24;24.40;49.60
6986;DHT22;3533;51.246;6.850;2023-09-07T14:18:50;24.40;49.60
6986;DHT22;3533;51.246;6.850;2023-09-07T14:21:16;24.40;49.60
6986;DHT22;3533;51.246;6.850;2023-09-07T14:23:43;24.40;49.60
6986;DHT22;3533;51.246;6.850;2023-09-07T14:26:08;24.40;49.60
6986;DHT22;3533;51.246;6.850;2023-09-07T14:28:34;24.40;49.60
6986;DHT22;3533;51.246;6.850;2023-09-07T14:31:00;24.40;49.60
6986;DHT22;3533;51.246;6.850;2023-09-07T14:33:29;24.40;49.60
6986;DHT22;3533;51.246;6.850;2023-09-07T14:35:55;24.40;49.60
6986;DHT22;3533;51.246;6.850;2023-09-07T14:38:21;24.40;49.60
6986;DHT22;3533;51.246;6.850;2023-09-07T14:40:48;24.40;49.60
6986;DHT22;3533;51.246;6.850;2023-09-07T14:43:15;24.40;49.60
6986;DHT22;3533;51.246;6.850;2023-09-07T14:45:41;24.40;49.60
6986;DHT22;3533;51.246;6.850;2023-09-07T14:48:06;24.40;49.60
6986;DHT22;3533;51.246;6.850;2023-09-07T14:50:32;24.40;49.60
6986;DHT22;3533;51.246;6.850;2023-09-07T14:52:58;24.40;49.70
6986;DHT22;3533;51.246;6.850;2023-09-07T14:55:23;24.40;49.60
6986;DHT22;3533;51.246;6.850;2023-09-07T14:57:49;24.40;49.60
6986;DHT22;3533;51.246;6.850;2023-09-07T15:00:14;24.40;49.60
6986;DHT22;3533;51.246;6.850;2023-09-07T15:02:40;24.40;49.60
6986;DHT22;3533;51.246;6.850;2023-09-07T15:05:06;24.40;49.70
6986;DHT22;3533;51.246;6.850;2023-09-07T15:07:31;24.40;49.60
6986;DHT22;3533;51.246;6.850;2023-09-07T15:09:57;24.40;49.70
6986;DHT22;3533;51.246;6.850;2023-09-07T15:12:23;24.40;49.60
6986;DHT22;3533;51.246;6.850;2023-09-07T15:14:48;24.40;49.60
6986;DHT22;3533;51.246;6.850;2023-09-07T15:17:15;24.40;49.60
6986;DHT22;3533;51.246;6.850;2023-09-07T15:19:42;24.40;49.60
6986;DHT22;3533;51.246;6.850;2023-09-07T15:22:08;24.40;49.70
6986;DHT22;3533;51.246;6.850;2023-09-07T15:24:33;24.40;49.60
6986;DHT22;3533;51.246;6.850;2023-09-07T15:27:06;24.40;49.60
6986;DHT22;3533;51.246;6.850;2023-09-07T15:29:32;24.40;49.60
6986;DHT22;3533;51.246;6.850;2023-09-07T15:31:57;24.40;49.60
6986;DHT22;3533;51.246;6.850;2023-09-07T15:34:23;24.40;49.60
6986;DHT22;3533;51.246;6.850;2023-09-07T15:36:48;24.40;49.60
6986;DHT22;3533;51.246;6.850;2023-09-07T15:39:14;24.40;49.60
6986;DHT22;3533;51.246;6.850;2023-09-07T15:41:39;24.40;49.60
6986;DHT22;3533;51.246;6.850;2023-09-07T15:44:05;24.40;49.60
6986;DHT22;3533;51.246;6.850;2023-09-07T15:46:30;24.40;49.50
6986;DHT22;3533;51.246;6.850;2023-09-07T15:48:56;24.40;49.50
6986;DHT22;3533;51.246;6.850;2023-09-07T15:51:22;24.40;49.50
6986;DHT22;3533;51.246;6.850;2023-09-07T15:53:48;24.40;49.50
6986;DHT22;3533;51.246;6.850;2023-09-07T15:56:13;24.40;49.50